createdAt,value
2023-01-28T00:00:13.942Z,93.00
2023-01-28T00:03:03.021Z,93.29
2023-01-28T00:05:35.541Z,93.67
2023-01-28T00:08:04.758Z,93.96
2023-01-28T00:10:34.909Z,93.90
2023-01-28T00:13:03.961Z,93.84
2023-01-28T00:15:32.848Z,93.74
2023-01-28T00:18:02.248Z,94.33
2023-01-28T00:20:31.034Z,94.33
2023-01-28T00:23:00.119Z,93.80
2023-01-28T00:25:28.981Z,93.93
2023-01-28T00:27:59.596Z,93.52
2023-01-28T00:30:28.450Z,93.46
2023-01-28T00:32:58.275Z,94.03
2023-01-28T00:35:27.040Z,93.95
2023-01-28T00:37:56.084Z,93.20
2023-01-28T00:40:25.241Z,93.12
2023-01-28T00:42:54.419Z,93.09
2023-01-28T00:45:24.820Z,93.43
2023-01-28T00:47:54.181Z,93.01
2023-01-28T00:50:23.222Z,93.07
2023-01-28T00:52:52.333Z,93.11
2023-01-28T00:55:21.621Z,92.88
2023-01-28T00:57:51.033Z,93.02
2023-01-28T01:00:21.901Z,92.94
2023-01-28T01:02:52.987Z,93.09
2023-01-28T01:05:21.920Z,92.69
2023-01-28T01:07:50.961Z,92.64
2023-01-28T01:10:21.546Z,92.67
2023-01-28T01:12:51.336Z,93.21
2023-01-28T01:15:21.914Z,92.77
2023-01-28T01:17:53.591Z,92.58
2023-01-28T01:20:26.333Z,92.84
2023-01-28T01:22:56.066Z,92.31
2023-01-28T01:25:24.825Z,92.79
2023-01-28T01:27:53.947Z,92.65
2023-01-28T01:30:22.771Z,92.77
2023-01-28T01:32:53.217Z,92.81
2023-01-28T01:35:22.031Z,92.72
2023-01-28T01:37:51.194Z,92.23
2023-01-28T01:40:20.146Z,92.10
2023-01-28T01:42:49.358Z,92.12
2023-01-28T01:45:18.550Z,92.12
2023-01-28T01:47:58.265Z,92.67
2023-01-28T01:50:33.866Z,92.18
2023-01-28T01:53:10.531Z,92.50
2023-01-28T01:55:44.479Z,92.25
2023-01-28T01:58:19.035Z,92.30
2023-01-28T02:00:49.462Z,91.92
2023-01-28T02:03:29.526Z,92.61
2023-01-28T02:05:58.390Z,92.24
2023-01-28T02:08:28.054Z,92.23
2023-01-28T02:11:03.530Z,92.17
2023-01-28T02:13:39.356Z,92.02
2023-01-28T02:16:11.185Z,91.81
2023-01-28T02:18:41.958Z,92.13
2023-01-28T02:21:52.142Z,92.35
2023-01-28T02:25:02.718Z,92.60
2023-01-28T02:27:40.807Z,92.64
2023-01-28T02:30:22.347Z,92.26
2023-01-28T02:32:58.764Z,92.25
2023-01-28T02:35:38.942Z,92.17
2023-01-28T02:38:13.592Z,91.75
2023-01-28T02:41:06.413Z,91.83
2023-01-28T02:43:39.077Z,92.39
2023-01-28T02:46:41.049Z,91.56
2023-01-28T02:49:16.043Z,92.02
2023-01-28T02:52:10.216Z,92.53
2023-01-28T02:54:53.608Z,92.37
2023-01-28T02:57:38.644Z,92.32
2023-01-28T03:00:19.475Z,92.66
2023-01-28T03:03:00.117Z,92.00
2023-01-28T03:05:36.849Z,92.34
2023-01-28T03:08:23.699Z,92.01
2023-01-28T03:11:11.945Z,92.37
2023-01-28T03:13:59.790Z,92.85
2023-01-28T03:16:49.663Z,93.68
2023-01-28T03:19:37.551Z,94.00
2023-01-28T03:22:24.156Z,93.40
2023-01-28T03:25:13.112Z,93.83
2023-01-28T03:28:10.474Z,94.00
2023-01-28T03:31:08.599Z,94.42
2023-01-28T03:34:04.448Z,94.94
2023-01-28T03:36:54.363Z,94.71
2023-01-28T03:39:39.200Z,94.60
2023-01-28T03:42:14.868Z,94.94
2023-01-28T03:44:54.129Z,95.15
2023-01-28T03:47:26.246Z,94.99
2023-01-28T03:49:59.726Z,95.53
2023-01-28T03:52:33.894Z,95.79
2023-01-28T03:55:19.333Z,96.07
2023-01-28T03:57:49.469Z,95.80
2023-01-28T04:00:20.549Z,96.01
2023-01-28T04:02:49.789Z,96.47
2023-01-28T04:05:22.720Z,96.30
2023-01-28T04:07:56.553Z,96.37
2023-01-28T04:10:55.006Z,96.78
2023-01-28T04:13:31.218Z,96.29
2023-01-28T04:16:03.574Z,96.36
2023-01-28T04:18:36.604Z,96.89
2023-01-28T04:21:07.421Z,95.84
2023-01-28T04:23:38.818Z,95.80
2023-01-28T04:26:09.530Z,96.71
2023-01-28T04:28:38.697Z,96.56
2023-01-28T04:31:08.255Z,96.86
2023-01-28T04:33:57.729Z,96.81
2023-01-28T04:36:37.326Z,96.45
2023-01-28T04:39:25.947Z,96.93
2023-01-28T04:42:16.031Z,97.02
2023-01-28T04:45:07.048Z,97.41
2023-01-28T04:47:56.151Z,97.46
2023-01-28T04:50:48.428Z,96.24
2023-01-28T04:53:43.252Z,96.37
2023-01-28T04:56:32.276Z,95.88
2023-01-28T04:59:02.201Z,95.67
2023-01-28T05:01:34.089Z,95.51
2023-01-28T05:04:05.768Z,96.11
2023-01-28T05:06:39.374Z,95.79
2023-01-28T05:09:15.755Z,96.05
2023-01-28T05:11:47.209Z,95.94
2023-01-28T05:14:16.983Z,95.49
2023-01-28T05:16:56.244Z,95.53
2023-01-28T05:19:25.243Z,95.70
2023-01-28T05:21:54.379Z,95.48
2023-01-28T05:24:33.379Z,94.60
2023-01-28T05:27:03.985Z,94.73
2023-01-28T05:29:32.790Z,94.38
2023-01-28T05:32:02.021Z,94.72
2023-01-28T05:34:33.316Z,94.44
2023-01-28T05:37:08.471Z,94.88
2023-01-28T05:39:39.542Z,94.64
2023-01-28T05:42:10.199Z,94.70
2023-01-28T05:44:44.707Z,94.19
2023-01-28T05:47:32.381Z,94.13
2023-01-28T05:50:17.598Z,94.50
2023-01-28T05:53:07.816Z,94.93
2023-01-28T05:55:38.121Z,94.94
2023-01-28T05:58:08.653Z,94.61
2023-01-28T06:00:38.596Z,94.85
2023-01-28T06:03:08.448Z,94.79
2023-01-28T06:05:38.564Z,94.64
2023-01-28T06:08:10.350Z,94.34
2023-01-28T06:10:39.576Z,94.62
2023-01-28T06:13:10.045Z,95.13
2023-01-28T06:15:39.115Z,95.32
2023-01-28T06:18:20.186Z,95.24
2023-01-28T06:20:51.315Z,95.09
2023-01-28T06:23:20.473Z,95.38
2023-01-28T06:25:49.444Z,95.17
2023-01-28T06:28:19.919Z,95.18
2023-01-28T06:30:50.253Z,95.04
2023-01-28T06:33:20.062Z,95.54
2023-01-28T06:35:49.134Z,95.98
2023-01-28T06:38:18.287Z,96.05
2023-01-28T06:40:52.540Z,95.72
2023-01-28T06:43:27.628Z,95.45
2023-01-28T06:45:56.665Z,95.68
2023-01-28T06:48:27.235Z,95.46
2023-01-28T06:50:56.218Z,95.59
2023-01-28T06:53:25.407Z,95.93
2023-01-28T06:55:54.193Z,96.01
2023-01-28T06:58:24.763Z,96.34
2023-01-28T07:00:55.505Z,96.21
2023-01-28T07:03:24.601Z,96.50
2023-01-28T07:05:53.814Z,96.47
2023-01-28T07:08:23.154Z,97.08
2023-01-28T07:10:51.918Z,97.24
2023-01-28T07:13:20.984Z,96.59
2023-01-28T07:15:51.165Z,97.76
2023-01-28T07:18:20.296Z,97.35
2023-01-28T07:20:49.278Z,97.42
2023-01-28T07:23:18.459Z,97.87
2023-01-28T07:25:47.319Z,97.80
2023-01-28T07:28:21.336Z,98.55
2023-01-28T07:30:53.784Z,99.18
2023-01-28T07:33:23.179Z,98.73
2023-01-28T07:35:52.050Z,98.74
2023-01-28T07:38:21.293Z,99.19
2023-01-28T07:40:50.298Z,99.01
2023-01-28T07:43:19.377Z,99.90
2023-01-28T07:45:52.049Z,100.00
2023-01-28T07:48:21.100Z,100.00
2023-01-28T07:50:51.893Z,100.00
2023-01-28T07:53:21.225Z,100.00
2023-01-28T07:55:50.058Z,100.00
2023-01-28T07:58:19.170Z,100.00
2023-01-28T08:00:47.945Z,100.00
2023-01-28T08:03:18.409Z,100.00
2023-01-28T08:05:49.384Z,100.00
2023-01-28T08:08:19.211Z,100.00
2023-01-28T08:10:48.220Z,100.00
2023-01-28T08:13:19.634Z,100.00
2023-01-28T08:15:49.181Z,100.00
2023-01-28T08:18:19.620Z,100.00
2023-01-28T08:20:48.434Z,100.00
2023-01-28T08:23:21.032Z,100.00
2023-01-28T08:25:51.342Z,100.00
2023-01-28T08:28:22.134Z,100.00
2023-01-28T08:30:51.159Z,100.00
2023-01-28T08:33:22.528Z,100.00
2023-01-28T08:35:51.367Z,100.00
2023-01-28T08:38:20.482Z,100.00
2023-01-28T08:40:50.540Z,100.00
2023-01-28T08:43:19.615Z,100.00
2023-01-28T08:45:48.473Z,100.00
2023-01-28T08:48:21.943Z,100.00
2023-01-28T08:50:51.087Z,100.00
2023-01-28T08:53:21.870Z,99.98
2023-01-28T08:55:50.822Z,100.00
2023-01-28T08:58:20.251Z,100.00
2023-01-28T09:00:50.162Z,100.00
2023-01-28T09:03:21.122Z,100.00
2023-01-28T09:05:50.713Z,100.00
2023-01-28T09:08:19.861Z,100.00
2023-01-28T09:10:48.659Z,100.00
2023-01-28T09:13:17.934Z,100.00
2023-01-28T09:15:46.836Z,99.71
2023-01-28T09:18:16.257Z,99.57
2023-01-28T09:20:46.833Z,100.00
2023-01-28T09:23:16.184Z,100.00
2023-01-28T09:25:45.170Z,99.39
2023-01-28T09:28:14.478Z,99.43
2023-01-28T09:30:43.347Z,99.48
2023-01-28T09:33:12.513Z,99.70
2023-01-28T09:35:41.393Z,99.61
2023-01-28T09:38:12.039Z,99.71
2023-01-28T09:40:45.763Z,99.87
2023-01-28T09:43:54.641Z,100.00
2023-01-28T09:46:29.356Z,99.89
2023-01-28T09:49:02.135Z,100.00
2023-01-28T09:51:37.443Z,100.00
2023-01-28T09:54:26.410Z,100.00
2023-01-28T09:57:05.599Z,100.00
2023-01-28T09:59:37.301Z,100.00
2023-01-28T10:02:39.105Z,100.00
2023-01-28T10:05:23.189Z,100.00
2023-01-28T10:08:09.716Z,100.00
2023-01-28T10:10:49.002Z,100.00
2023-01-28T10:13:39.904Z,100.00
2023-01-28T10:16:25.508Z,100.00
2023-01-28T10:19:02.227Z,100.00
2023-01-28T10:21:40.538Z,100.00
2023-01-28T10:24:18.759Z,100.00
2023-01-28T10:26:49.422Z,100.00
2023-01-28T10:29:22.905Z,100.00
2023-01-28T10:31:55.847Z,100.00
2023-01-28T10:49:49.249Z,100.00
2023-01-28T10:52:18.962Z,100.00
2023-01-28T10:54:47.841Z,100.00
2023-01-28T10:57:20.395Z,100.00
2023-01-28T10:59:50.938Z,99.54
2023-01-28T11:02:33.048Z,99.49
2023-01-28T11:05:17.680Z,99.69
2023-01-28T11:07:48.455Z,100.00
2023-01-28T11:10:32.327Z,98.92
2023-01-28T11:13:04.813Z,98.39
2023-01-28T11:15:34.611Z,99.71
2023-01-28T11:18:09.630Z,99.32
2023-01-28T11:20:50.420Z,99.49
2023-01-28T11:23:25.420Z,99.47
2023-01-28T11:26:06.004Z,99.63
2023-01-28T11:28:37.003Z,99.83
2023-01-28T11:31:06.691Z,100.00
2023-01-28T11:33:40.434Z,99.32
2023-01-28T11:36:16.838Z,99.11
2023-01-28T11:38:55.407Z,98.85
2023-01-28T11:41:31.723Z,99.28
2023-01-28T11:44:11.666Z,98.97
2023-01-28T11:47:12.159Z,99.80
2023-01-28T11:50:07.056Z,99.60
2023-01-28T11:53:06.428Z,98.35
2023-01-28T11:55:53.857Z,98.13
2023-01-28T11:59:54.138Z,98.16
2023-01-28T12:02:50.045Z,94.55
2023-01-28T12:05:40.510Z,91.57
2023-01-28T12:08:23.269Z,90.13
2023-01-28T12:11:43.609Z,90.62
2023-01-28T12:14:25.720Z,90.81
2023-01-28T12:17:21.889Z,91.23
2023-01-28T12:20:10.726Z,92.12
2023-01-28T12:23:08.441Z,91.31
2023-01-28T12:25:54.787Z,90.95
2023-01-28T12:28:39.743Z,91.17
2023-01-28T12:31:45.427Z,90.96
2023-01-28T12:35:06.939Z,90.97
2023-01-28T12:37:58.900Z,90.93
2023-01-28T12:40:51.357Z,90.79
2023-01-28T12:43:29.177Z,90.76
2023-01-28T12:46:04.652Z,90.18
2023-01-28T12:48:41.653Z,89.49
2023-01-28T12:51:18.304Z,89.48
2023-01-28T12:53:56.229Z,89.32
2023-01-28T12:56:33.958Z,89.29
2023-01-28T12:59:13.870Z,88.99
2023-01-28T13:01:50.754Z,89.32
2023-01-28T13:04:37.805Z,89.66
2023-01-28T13:07:17.906Z,89.26
2023-01-28T13:09:54.929Z,88.83
2023-01-28T13:12:24.694Z,88.89
2023-01-28T13:14:54.534Z,88.79
2023-01-28T13:17:32.949Z,89.24
2023-01-28T13:20:02.336Z,88.99
2023-01-28T13:22:36.021Z,89.04
2023-01-28T13:25:28.115Z,88.76
2023-01-28T13:28:01.191Z,88.79
2023-01-28T13:30:32.887Z,89.21
2023-01-28T13:33:04.475Z,90.22
2023-01-28T13:35:38.068Z,90.34
2023-01-28T13:38:20.098Z,91.46
2023-01-28T13:40:58.202Z,91.89
2023-01-28T13:43:38.108Z,90.20
2023-01-28T13:46:11.294Z,90.68
2023-01-28T13:48:51.192Z,90.20
2023-01-28T13:51:25.336Z,90.34
2023-01-28T13:54:03.643Z,91.54
2023-01-28T13:56:43.410Z,91.62
2023-01-28T13:59:50.613Z,92.52
2023-01-28T14:03:08.633Z,92.45
2023-01-28T14:06:26.951Z,92.35
2023-01-28T14:09:24.945Z,92.20
2023-01-28T14:12:39.324Z,92.13
2023-01-28T14:15:34.804Z,92.19
2023-01-28T14:18:13.172Z,92.40
2023-01-28T14:20:46.757Z,92.26
2023-01-28T14:23:22.281Z,92.16
2023-01-28T14:26:08.093Z,91.78
2023-01-28T14:28:51.534Z,91.46
2023-01-28T14:31:29.211Z,91.30
2023-01-28T14:34:15.460Z,90.66
2023-01-28T14:36:48.950Z,90.60
2023-01-28T14:39:22.421Z,90.57
2023-01-28T14:41:56.448Z,89.83
2023-01-28T14:44:37.812Z,90.07
2023-01-28T14:47:38.781Z,89.81
2023-01-28T14:50:43.529Z,89.01
2023-01-28T14:53:43.945Z,88.49
2023-01-28T14:56:29.363Z,87.97
2023-01-28T14:59:08.453Z,87.73
2023-01-28T15:01:44.959Z,86.47
2023-01-28T15:04:26.313Z,85.96
2023-01-28T15:06:55.376Z,85.07
2023-01-28T15:09:25.807Z,83.68
2023-01-28T15:12:01.036Z,82.94
2023-01-28T15:14:33.874Z,81.93
2023-01-28T15:17:04.839Z,80.74
2023-01-28T15:19:36.855Z,81.32
2023-01-28T15:22:08.915Z,82.39
2023-01-28T15:24:43.211Z,82.24
2023-01-28T15:27:20.157Z,82.05
2023-01-28T15:29:57.856Z,81.46
2023-01-28T15:32:29.985Z,82.63
2023-01-28T15:35:02.237Z,83.71
2023-01-28T15:37:31.150Z,83.33
2023-01-28T15:40:06.897Z,82.29
2023-01-28T15:42:36.290Z,80.92
2023-01-28T15:45:18.786Z,79.60
2023-01-28T15:47:49.530Z,78.44
2023-01-28T15:50:22.697Z,78.87
2023-01-28T15:52:55.563Z,79.90
2023-01-28T15:55:38.140Z,80.63
2023-01-28T15:58:30.953Z,80.83
2023-01-28T16:01:17.743Z,81.85
2023-01-28T16:03:49.314Z,82.46
2023-01-28T16:06:23.112Z,82.71
2023-01-28T16:08:58.973Z,82.68
2023-01-28T16:11:31.763Z,82.09
2023-01-28T16:14:01.835Z,82.17
2023-01-28T16:16:36.515Z,82.22
2023-01-28T16:19:08.778Z,82.55
2023-01-28T16:21:46.002Z,83.20
2023-01-28T16:24:27.305Z,81.04
2023-01-28T16:27:02.596Z,80.27
2023-01-28T16:29:32.555Z,79.42
2023-01-28T16:32:04.243Z,77.98
2023-01-28T16:34:33.217Z,77.88
2023-01-28T16:37:03.204Z,78.78
2023-01-28T16:39:31.979Z,79.47
2023-01-28T16:42:01.044Z,80.96
2023-01-28T16:44:29.882Z,81.54
2023-01-28T16:46:58.970Z,81.91
2023-01-28T16:49:29.146Z,82.87
2023-01-28T16:51:58.464Z,83.42
2023-01-28T16:54:27.383Z,83.66
2023-01-28T16:56:58.325Z,83.25
2023-01-28T16:59:27.170Z,83.49
2023-01-28T17:01:56.321Z,82.80
2023-01-28T17:04:25.092Z,82.69
2023-01-28T17:06:55.553Z,82.91
2023-01-28T17:09:25.504Z,83.04
2023-01-28T17:11:54.652Z,82.88
2023-01-28T17:14:23.754Z,82.29
2023-01-28T17:16:52.844Z,82.12
2023-01-28T17:19:21.916Z,81.68
2023-01-28T17:21:51.142Z,79.13
2023-01-28T17:24:21.599Z,77.18
2023-01-28T17:26:53.758Z,75.93
2023-01-28T17:29:22.578Z,76.99
2023-01-28T17:31:51.795Z,75.80
2023-01-28T17:34:20.808Z,75.80
2023-01-28T17:36:49.962Z,77.20
2023-01-28T17:39:20.406Z,77.93
2023-01-28T17:41:52.109Z,75.83
2023-01-28T17:44:21.401Z,75.58
2023-01-28T17:46:50.601Z,76.48
2023-01-28T17:49:19.505Z,76.99
2023-01-28T17:51:48.876Z,78.09
2023-01-28T17:54:17.692Z,78.57
2023-01-28T17:56:48.206Z,78.93
2023-01-28T17:59:17.732Z,79.00
2023-01-28T18:01:48.122Z,78.71
2023-01-28T18:04:17.002Z,78.39
2023-01-28T18:06:47.133Z,79.07
2023-01-28T18:09:16.033Z,77.97
2023-01-28T18:11:45.144Z,76.60
2023-01-28T18:14:15.658Z,75.74
2023-01-28T18:16:44.844Z,76.69
2023-01-28T18:19:14.134Z,77.43
2023-01-28T18:21:52.703Z,76.29
2023-01-28T18:24:23.939Z,73.41
2023-01-28T18:26:55.397Z,73.33
2023-01-28T18:29:26.570Z,72.01
2023-01-28T18:31:58.085Z,71.80
2023-01-28T18:34:30.851Z,70.80
2023-01-28T18:37:00.554Z,70.50
2023-01-28T18:39:31.233Z,70.56
2023-01-28T18:42:00.992Z,71.46
2023-01-28T18:44:32.177Z,71.69
2023-01-28T18:47:01.328Z,71.83
2023-01-28T18:49:30.289Z,70.36
2023-01-28T18:51:59.484Z,68.98
2023-01-28T18:54:28.306Z,69.03
2023-01-28T18:56:57.413Z,69.70
2023-01-28T18:59:26.494Z,69.49
2023-01-28T19:01:57.040Z,68.69
2023-01-28T19:04:25.991Z,68.73
2023-01-28T19:06:58.022Z,69.32
2023-01-28T19:09:26.788Z,69.72
2023-01-28T19:11:55.895Z,70.42
2023-01-28T19:14:24.689Z,70.44
2023-01-28T19:16:53.808Z,71.00
2023-01-28T19:19:24.011Z,69.87
2023-01-28T19:21:53.589Z,69.33
2023-01-28T19:24:22.535Z,69.40
2023-01-28T19:26:51.735Z,69.63
2023-01-28T19:29:20.610Z,69.77
2023-01-28T19:31:49.830Z,70.38
2023-01-28T19:34:18.741Z,69.28
2023-01-28T19:36:49.252Z,68.88
2023-01-28T19:39:18.489Z,67.66
2023-01-28T19:41:47.619Z,67.40
2023-01-28T19:44:16.583Z,67.08
2023-01-28T19:46:45.703Z,67.53
2023-01-28T19:49:15.665Z,67.16
2023-01-28T19:51:45.280Z,66.84
2023-01-28T19:54:15.641Z,65.96
2023-01-28T19:56:44.788Z,66.09
2023-01-28T19:59:15.092Z,66.23
2023-01-28T20:01:44.380Z,65.92
2023-01-28T20:04:13.470Z,65.50
2023-01-28T20:06:42.569Z,66.03
2023-01-28T20:09:21.186Z,65.99
2023-01-28T20:11:50.420Z,65.31
2023-01-28T20:14:20.902Z,65.28
2023-01-28T20:16:50.252Z,65.74
2023-01-28T20:19:20.343Z,65.89
2023-01-28T20:21:52.802Z,65.71
2023-01-28T20:24:23.020Z,65.92
2023-01-28T20:26:52.350Z,65.79
2023-01-28T20:29:22.489Z,65.31
2023-01-28T20:32:08.881Z,64.41
2023-01-28T20:34:40.437Z,64.52
2023-01-28T20:37:10.177Z,64.78
2023-01-28T20:39:40.347Z,64.75
2023-01-28T20:42:10.802Z,64.87
2023-01-28T20:44:39.659Z,65.00
2023-01-28T20:47:08.952Z,64.37
2023-01-28T20:49:38.013Z,64.59
2023-01-28T20:52:07.349Z,64.55
2023-01-28T20:54:36.181Z,64.45
2023-01-28T20:57:06.685Z,63.98
2023-01-28T20:59:35.567Z,64.68
2023-01-28T21:02:05.445Z,65.32
2023-01-28T21:04:36.066Z,65.34
2023-01-28T21:07:05.245Z,65.55
2023-01-28T21:09:34.053Z,65.33
2023-01-28T21:12:03.234Z,66.22
2023-01-28T21:14:33.440Z,66.75
2023-01-28T21:17:02.611Z,66.63
2023-01-28T21:19:31.675Z,66.65
2023-01-28T21:22:00.780Z,67.35
2023-01-28T21:24:29.835Z,67.09
2023-01-28T21:26:59.186Z,66.97
2023-01-28T21:29:28.097Z,66.45
2023-01-28T21:31:58.683Z,66.19
2023-01-28T21:34:27.829Z,66.37
2023-01-28T21:36:57.001Z,65.82
2023-01-28T21:39:26.085Z,66.52
2023-01-28T21:41:55.285Z,66.98
2023-01-28T21:44:24.395Z,66.04
2023-01-28T21:46:53.499Z,65.30
2023-01-28T21:49:23.727Z,66.10
2023-01-28T21:51:52.920Z,65.57
2023-01-28T21:54:22.358Z,65.14
2023-01-28T21:56:53.188Z,65.69
2023-01-28T21:59:32.728Z,66.08
2023-01-28T22:02:05.465Z,65.95
2023-01-28T22:04:38.370Z,66.34
2023-01-28T22:07:10.305Z,66.31
2023-01-28T22:09:40.049Z,66.30
2023-01-28T22:12:09.680Z,66.55
2023-01-28T22:14:40.195Z,66.16
2023-01-28T22:17:11.180Z,67.00
2023-01-28T22:19:47.796Z,67.69
2023-01-28T22:22:17.392Z,66.18
2023-01-28T22:24:46.356Z,65.23
2023-01-28T22:27:15.505Z,65.83
2023-01-28T22:29:44.297Z,65.98
2023-01-28T22:32:13.413Z,65.95
2023-01-28T22:34:45.983Z,65.90
2023-01-28T22:37:16.111Z,65.70
2023-01-28T22:39:44.912Z,66.02
2023-01-28T22:42:14.229Z,65.67
2023-01-28T22:44:43.191Z,66.17
2023-01-28T22:47:14.850Z,66.47
2023-01-28T22:49:45.081Z,65.95
2023-01-28T22:52:14.366Z,66.04
2023-01-28T22:54:43.171Z,65.82
2023-01-28T22:57:12.228Z,65.34
2023-01-28T22:59:43.748Z,64.73
2023-01-28T23:02:15.438Z,64.20
2023-01-28T23:04:45.813Z,64.59
2023-01-28T23:07:15.315Z,65.12
2023-01-28T23:09:44.779Z,65.17
2023-01-28T23:12:13.932Z,65.38
2023-01-28T23:15:00.135Z,66.32
2023-01-28T23:17:46.867Z,66.84
2023-01-28T23:20:34.768Z,66.33
2023-01-28T23:23:21.465Z,66.78
2023-01-28T23:25:50.339Z,67.16
2023-01-28T23:28:19.443Z,67.37
2023-01-28T23:30:48.496Z,67.05
2023-01-28T23:33:17.746Z,66.45
2023-01-28T23:35:48.002Z,66.26
2023-01-28T23:38:17.146Z,65.90
2023-01-28T23:40:45.964Z,66.22
2023-01-28T23:43:15.061Z,66.84
2023-01-28T23:45:44.283Z,66.61
2023-01-28T23:48:13.331Z,66.44
2023-01-28T23:50:42.222Z,65.91
2023-01-28T23:53:13.386Z,65.98
2023-01-28T23:55:42.165Z,66.33
2023-01-28T23:58:11.247Z,65.51
